Flight Track Log - Related Links

Times and Time Zones

All times are in EDT time to prevent confusion due to time zone crossing. See the SKW7390 flight status page for this flight to view local times or setup timezone preferences in your user account.

Time Position Orientation Groundspeed Altitude Reporting Facility
EDT Latitude Longitude Course Direction KTS MPH feet Rate Location/Type
Thu 10:44:53 PM 40.8133 -112.0025 72° East 143 165 5,200  Level Salt Lake Center
Thu 10:45:42 PM 40.8461 -112.0056 356° North 154 177 6,500 1,429 Climbing Salt Lake Center
Thu 10:46:17 PM 40.8692 -112.0069 357° North 166 191 7,200 1,791 Climbing Salt Lake Center
Thu 10:46:49 PM 40.8889 -111.9711 54° Northeast 197 227 8,500 2,032 Climbing Salt Lake Center
Thu 10:47:19 PM 40.8933 -111.9303 82° East 203 234 9,300 1,516 Climbing Salt Lake Center
Thu 10:48:00 PM 40.8936 -111.7693 66° East  Level FlightAware Approximate
Thu 10:48:20 PM 40.9039 -111.8544 80° East 212 244 10,800  Level Salt Lake Center
Thu 10:49:00 PM 40.9211 -111.6780 75° East  Level FlightAware Approximate
Thu 10:49:22 PM 40.9244 -111.7772 71° East 226 260 12,000  Level Salt Lake Center
Thu 10:50:00 PM 40.9417 -111.5833 72° East  Level FlightAware Approximate
Thu 10:50:23 PM 40.9508 -111.6992 66° East 240 276 13,000  Level Salt Lake Center
Thu 10:51:25 PM 40.9789 -111.6161 66° East 252 290 13,800 823 Climbing Salt Lake Center
Thu 10:52:27 PM 41.0042 -111.5047 73° East 267 307 14,700 829 Climbing Salt Lake Center
Thu 10:53:28 PM 41.0283 -111.4114 71° East 269 310 15,500 732 Climbing Salt Lake Center
Thu 10:54:30 PM 41.0528 -111.3169 71° East 271 312 16,200 683 Climbing Salt Lake Center
Thu 10:55:31 PM 41.0772 -111.2192 72° East 278 320 16,900 634 Climbing Salt Lake Center
Thu 10:56:33 PM 41.1008 -111.1231 72° East 277 319 17,500 537 Climbing Salt Lake Center
Thu 10:57:34 PM 41.1247 -111.0250 72° East 279 321 18,000 393 Climbing Salt Lake Center
Thu 10:58:35 PM 41.1528 -110.9100 72° East 286 329 18,300 390 Climbing Salt Lake Center
Thu 10:59:37 PM 41.1772 -110.8131 71° East 289 333 18,800 98 Climbing Salt Lake Center
Thu 11:00:38 PM 41.2050 -110.6992 72° East 291 335 18,500 -439 Descending Salt Lake Center
Thu 11:01:40 PM 41.2319 -110.5917 72° East 313 360 17,900 -341 Descending Salt Lake Center
Thu 11:02:41 PM 41.2572 -110.4864 72° East 314 361 17,800 -443 Descending Salt Lake Center
Thu 11:03:42 PM 41.2883 -110.3628 71° East 316 364 17,000 -732 Descending Salt Lake Center
Thu 11:04:44 PM 41.3131 -110.2572 73° East 314 361 16,300 -732 Descending Salt Lake Center
Thu 11:05:45 PM 41.3428 -110.1344 72° East 312 359 15,500 -780 Descending Salt Lake Center
Thu 11:06:47 PM 41.3692 -110.0292 71° East 314 361 14,700 -634 Descending Salt Lake Center
Thu 11:07:48 PM 41.3944 -109.9236 72° East 313 360 14,200 -541 Descending Salt Lake Center
Thu 11:08:49 PM 41.4228 -109.8039 72° East 304 350 13,600 -639 Descending Salt Lake Center
Thu 11:09:50 PM 41.4472 -109.7003 72° East 306 352 12,900 -683 Descending Salt Lake Center
Thu 11:10:52 PM 41.4714 -109.5958 73° East 308 354 12,200 -677 Descending Salt Lake Center

Login

Don't have an account? Register now (free) for customized features, flight alerts, and more!